Time,TemperatureF,DewpointF,PressureIn,WindDirection,WindDirectionDegrees,WindSpeedMPH,WindSpeedGustMPH,Humidity,HourlyPrecipIn,Conditions,Clouds,dailyrainin,SoftwareType,DateUTC
2013-02-15 00:02:00,24.0,22.0,30.07,SW,226,0.0,0.0,91,0.00,,,0.02,,2013-02-15 05:02:00,
2013-02-15 00:22:00,24.0,22.0,30.07,SW,226,0.0,0.0,91,0.00,,,0.02,,2013-02-15 05:22:00,
2013-02-15 00:32:00,23.0,21.0,30.07,SW,227,0.0,0.0,92,0.00,,,0.02,,2013-02-15 05:32:00,
2013-02-15 00:52:00,23.0,21.0,30.07,SW,226,0.0,0.0,93,0.00,,,0.02,,2013-02-15 05:52:00,
2013-02-15 01:02:00,22.0,20.0,30.07,SW,226,0.0,0.0,92,0.00,,,0.02,,2013-02-15 06:02:00,
2013-02-15 01:22:00,22.0,20.0,30.07,SW,226,0.0,0.0,93,0.00,,,0.02,,2013-02-15 06:22:00,
2013-02-15 01:32:00,22.0,20.0,30.07,SW,226,0.0,0.0,93,0.00,,,0.02,,2013-02-15 06:32:00,
2013-02-15 01:52:00,23.0,22.0,30.07,SW,226,0.0,0.0,94,0.00,,,0.02,,2013-02-15 06:52:00,
2013-02-15 02:01:00,23.0,21.0,30.07,SW,226,0.0,0.0,93,0.00,,,0.02,,2013-02-15 07:01:00,
2013-02-15 02:11:00,23.0,21.0,30.07,SW,226,0.0,0.0,93,0.00,,,0.02,,2013-02-15 07:11:00,
2013-02-15 02:21:00,23.0,21.0,30.07,SW,226,0.0,0.0,93,0.00,,,0.02,,2013-02-15 07:21:00,
2013-02-15 02:32:00,23.0,22.0,30.07,SW,226,0.0,0.0,94,0.00,,,0.02,,2013-02-15 07:32:00,
2013-02-15 02:42:00,23.0,22.0,30.07,SW,226,0.0,0.0,94,0.00,,,0.02,,2013-02-15 07:42:00,
2013-02-15 02:52:00,24.0,23.0,30.06,SW,226,0.0,0.0,94,0.00,,,0.02,,2013-02-15 07:52:00,
2013-02-15 03:01:00,24.0,22.0,30.06,SW,226,0.0,0.0,93,0.00,,,0.02,,2013-02-15 08:01:00,
2013-02-15 03:11:00,24.0,22.0,30.06,SW,226,0.0,0.0,93,0.00,,,0.02,,2013-02-15 08:11:00,
2013-02-15 03:21:00,24.0,22.0,30.06,SW,226,0.0,0.0,93,0.00,,,0.02,,2013-02-15 08:21:00,
2013-02-15 03:32:00,24.0,22.0,30.06,SW,226,0.0,0.0,93,0.00,,,0.02,,2013-02-15 08:32:00,
2013-02-15 03:42:00,24.0,22.0,30.06,SW,226,0.0,0.0,93,0.00,,,0.02,,2013-02-15 08:42:00,
2013-02-15 03:53:00,25.0,23.0,30.06,SW,226,0.0,0.0,93,0.00,,,0.02,,2013-02-15 08:53:00,
2013-02-15 04:02:00,25.0,23.0,30.06,SW,226,0.0,0.0,93,0.00,,,0.02,,2013-02-15 09:02:00,
2013-02-15 04:12:00,25.0,23.0,30.06,SW,226,0.0,0.0,93,0.00,,,0.02,,2013-02-15 09:12:00,
2013-02-15 04:22:00,25.0,24.0,30.06,SW,226,0.0,0.0,94,0.00,,,0.02,,2013-02-15 09:22:00,
2013-02-15 04:32:00,26.0,25.0,30.06,SW,226,0.0,0.0,94,0.00,,,0.02,,2013-02-15 09:32:00,
2013-02-15 04:42:00,26.0,25.0,30.06,SW,226,0.0,0.0,94,0.00,,,0.02,,2013-02-15 09:42:00,
2013-02-15 04:52:00,26.0,25.0,30.06,SW,226,0.0,0.0,94,0.00,,,0.02,,2013-02-15 09:52:00,
2013-02-15 05:01:00,26.0,24.0,30.06,SW,226,0.0,0.0,93,0.00,,,0.02,,2013-02-15 10:01:00,
2013-02-15 05:11:00,26.0,24.0,30.06,SW,226,0.0,0.0,93,0.00,,,0.02,,2013-02-15 10:11:00,
2013-02-15 05:21:00,25.0,24.0,30.06,SW,226,0.0,0.0,94,0.00,,,0.02,,2013-02-15 10:21:00,
2013-02-15 05:32:00,24.0,23.0,30.06,SW,226,0.0,0.0,94,0.00,,,0.02,,2013-02-15 10:32:00,
2013-02-15 05:42:00,24.0,23.0,30.06,SW,226,0.0,0.0,94,0.00,,,0.02,,2013-02-15 10:42:00,
2013-02-15 05:52:00,24.0,23.0,30.06,SW,226,0.0,0.0,94,0.00,,,0.02,,2013-02-15 10:52:00,
2013-02-15 06:01:00,23.0,22.0,30.07,SW,226,0.0,0.0,94,0.00,,,0.02,,2013-02-15 11:01:00,
2013-02-15 06:11:00,23.0,22.0,30.07,SW,226,0.0,0.0,94,0.00,,,0.02,,2013-02-15 11:11:00,
2013-02-15 06:23:00,23.0,22.0,30.06,SW,226,0.0,0.0,95,0.00,,,0.02,,2013-02-15 11:23:00,
2013-02-15 06:32:00,23.0,22.0,30.06,SW,226,0.0,0.0,94,0.00,,,0.02,,2013-02-15 11:32:00,
2013-02-15 06:42:00,23.0,22.0,30.06,SW,226,0.0,0.0,94,0.00,,,0.02,,2013-02-15 11:42:00,
2013-02-15 06:52:00,23.0,22.0,30.06,SW,226,0.0,0.0,95,0.00,,,0.02,,2013-02-15 11:52:00,
2013-02-15 07:02:00,23.0,22.0,30.06,SW,226,0.0,0.0,95,0.00,,,0.02,,2013-02-15 12:02:00,
2013-02-15 07:22:00,23.0,22.0,30.06,SW,226,0.0,0.0,95,0.00,,,0.02,,2013-02-15 12:22:00,
2013-02-15 07:32:00,23.0,22.0,30.06,SW,226,0.0,0.0,95,0.00,,,0.02,,2013-02-15 12:32:00,
2013-02-15 07:52:00,24.0,23.0,30.06,SW,226,0.0,0.0,95,0.00,,,0.02,,2013-02-15 12:52:00,
2013-02-15 08:02:00,26.0,25.0,30.07,SW,226,0.0,0.0,96,0.00,,,0.02,,2013-02-15 13:02:00,
2013-02-15 08:11:00,26.0,25.0,30.07,SW,226,0.0,0.0,96,0.00,,,0.02,,2013-02-15 13:11:00,
2013-02-15 08:22:00,27.0,26.0,30.07,SW,226,0.0,0.0,96,0.00,,,0.02,,2013-02-15 13:22:00,
2013-02-15 08:32:00,29.0,28.0,30.07,SW,226,0.0,0.0,96,0.00,,,0.02,,2013-02-15 13:32:00,
2013-02-15 08:42:00,29.0,28.0,30.07,SW,226,0.0,0.0,96,0.00,,,0.02,,2013-02-15 13:42:00,
2013-02-15 08:52:00,33.0,32.0,30.07,SW,221,0.0,5.0,96,0.00,,,0.02,,2013-02-15 13:52:00,
2013-02-15 09:01:00,36.0,31.0,30.07,SSW,213,1.0,4.0,83,0.00,,,0.02,,2013-02-15 14:01:00,
2013-02-15 09:12:00,36.0,31.0,30.07,SSW,213,1.0,4.0,83,0.00,,,0.02,,2013-02-15 14:12:00,
2013-02-15 09:22:00,38.0,32.0,30.07,ESE,108,2.0,8.0,78,0.00,,,0.02,,2013-02-15 14:22:00,
2013-02-15 09:32:00,39.0,32.0,30.07,SE,136,1.0,4.0,75,0.00,,,0.02,,2013-02-15 14:32:00,
2013-02-15 09:42:00,39.0,32.0,30.07,SE,136,1.0,4.0,75,0.00,,,0.02,,2013-02-15 14:42:00,
2013-02-15 09:52:00,41.0,33.0,30.07,East,90,1.0,5.0,72,0.00,,,0.02,,2013-02-15 14:52:00,
2013-02-15 10:02:00,42.0,32.0,30.07,SW,219,2.0,6.0,68,0.00,,,0.02,,2013-02-15 15:02:00,
2013-02-15 10:11:00,42.0,32.0,30.07,SW,219,2.0,6.0,68,0.00,,,0.02,,2013-02-15 15:11:00,
2013-02-15 10:22:00,42.0,31.0,30.07,SSW,197,1.0,6.0,65,0.00,,,0.02,,2013-02-15 15:22:00,
2013-02-15 10:32:00,44.0,32.0,30.07,SSW,194,1.0,6.0,62,0.00,,,0.02,,2013-02-15 15:32:00,
2013-02-15 10:42:00,44.0,32.0,30.07,SSW,194,1.0,6.0,62,0.00,,,0.02,,2013-02-15 15:42:00,
2013-02-15 10:52:00,45.0,32.0,30.07,SW,219,1.0,5.0,60,0.00,,,0.02,,2013-02-15 15:52:00,
2013-02-15 11:02:00,46.0,32.0,30.07,SE,129,2.0,7.0,57,0.00,,,0.02,,2013-02-15 16:02:00,
2013-02-15 11:11:00,46.0,32.0,30.07,SE,129,2.0,7.0,57,0.00,,,0.02,,2013-02-15 16:11:00,
2013-02-15 11:22:00,47.0,32.0,30.06,SW,222,2.0,5.0,55,0.00,,,0.01,,2013-02-15 16:22:00,
2013-02-15 11:32:00,47.0,31.0,30.06,SSW,211,1.0,7.0,54,0.00,,,0.01,,2013-02-15 16:32:00,
2013-02-15 11:42:00,47.0,31.0,30.06,SSW,211,1.0,7.0,54,0.00,,,0.01,,2013-02-15 16:42:00,
2013-02-15 11:52:00,49.0,32.0,30.05,SW,224,1.0,6.0,51,0.00,,,0.01,,2013-02-15 16:52:00,
2013-02-15 12:01:00,49.0,32.0,30.04,SSW,212,2.0,7.0,51,0.00,,,0.01,,2013-02-15 17:01:00,
2013-02-15 12:11:00,49.0,32.0,30.04,SSW,212,2.0,7.0,51,0.00,,,0.01,,2013-02-15 17:11:00,
2013-02-15 12:21:00,49.0,31.0,30.03,SW,214,3.0,10.0,49,0.00,,,0.00,,2013-02-15 17:21:00,
2013-02-15 12:32:00,50.0,32.0,30.03,SSW,210,2.0,8.0,49,0.00,,,0.00,,2013-02-15 17:32:00,
2013-02-15 12:42:00,50.0,32.0,30.03,SSW,210,2.0,8.0,49,0.00,,,0.00,,2013-02-15 17:42:00,
2013-02-15 12:52:00,50.0,31.0,30.02,ENE,65,3.0,9.0,48,0.00,,,0.00,,2013-02-15 17:52:00,
2013-02-15 13:01:00,51.0,31.0,30.02,SW,225,2.0,8.0,47,0.00,,,0.00,,2013-02-15 18:01:00,
2013-02-15 13:12:00,51.0,31.0,30.02,SW,225,2.0,8.0,47,0.00,,,0.00,,2013-02-15 18:12:00,
2013-02-15 13:22:00,51.0,31.0,30.01,South,183,3.0,9.0,46,0.00,,,0.00,,2013-02-15 18:22:00,
2013-02-15 13:32:00,51.0,31.0,30.00,SW,236,2.0,8.0,46,0.00,,,0.00,,2013-02-15 18:32:00,
2013-02-15 13:42:00,51.0,31.0,30.00,SW,236,2.0,8.0,46,0.00,,,0.00,,2013-02-15 18:42:00,
2013-02-15 13:53:00,51.0,33.0,30.01,SW,218,1.0,5.0,50,0.00,,,0.00,,2013-02-15 18:53:00,
2013-02-15 14:02:00,50.0,33.0,30.00,SW,232,0.0,2.0,52,0.00,,,0.00,,2013-02-15 19:02:00,
2013-02-15 14:11:00,50.0,33.0,30.00,SW,232,0.0,2.0,52,0.00,,,0.00,,2013-02-15 19:11:00,
2013-02-15 14:22:00,51.0,34.0,30.00,SW,218,0.0,5.0,52,0.00,,,0.00,,2013-02-15 19:22:00,
2013-02-15 14:32:00,51.0,34.0,30.00,SSW,212,0.0,4.0,51,0.00,,,0.00,,2013-02-15 19:32:00,
2013-02-15 14:42:00,51.0,34.0,30.00,SSW,212,0.0,4.0,51,0.00,,,0.00,,2013-02-15 19:42:00,
2013-02-15 14:52:00,51.0,33.0,29.99,SW,228,2.0,8.0,49,0.00,,,0.00,,2013-02-15 19:52:00,
2013-02-15 15:01:00,50.0,32.0,30.00,SW,221,2.0,5.0,50,0.00,,,0.00,,2013-02-15 20:01:00,
2013-02-15 15:11:00,50.0,32.0,30.00,SW,221,2.0,5.0,50,0.00,,,0.00,,2013-02-15 20:11:00,
2013-02-15 15:21:00,51.0,33.0,30.00,WSW,250,1.0,9.0,50,0.00,,,0.00,,2013-02-15 20:21:00,
2013-02-15 15:32:00,50.0,32.0,29.99,SSW,205,2.0,6.0,50,0.00,,,0.00,,2013-02-15 20:32:00,
2013-02-15 15:42:00,50.0,32.0,29.99,SSW,205,2.0,6.0,50,0.00,,,0.00,,2013-02-15 20:42:00,
2013-02-15 15:52:00,51.0,33.0,29.99,SW,219,1.0,4.0,50,0.00,,,0.00,,2013-02-15 20:52:00,
2013-02-15 16:02:00,51.0,33.0,29.99,SSW,211,2.0,4.0,50,0.00,,,0.00,,2013-02-15 21:02:00,
2013-02-15 16:11:00,51.0,33.0,29.99,SSW,211,2.0,4.0,50,0.00,,,0.00,,2013-02-15 21:11:00,
2013-02-15 16:22:00,50.0,32.0,29.98,South,191,1.0,8.0,50,0.00,,,0.00,,2013-02-15 21:22:00,
2013-02-15 16:32:00,49.0,33.0,29.99,SSW,205,1.0,4.0,53,0.00,,,0.00,,2013-02-15 21:32:00,
2013-02-15 16:42:00,49.0,33.0,29.99,SSW,205,1.0,4.0,53,0.00,,,0.00,,2013-02-15 21:42:00,
2013-02-15 16:52:00,47.0,32.0,29.99,SW,231,1.0,4.0,56,0.00,,,0.00,,2013-02-15 21:52:00,
2013-02-15 17:02:00,46.0,32.0,30.00,SW,224,0.0,5.0,58,0.00,,,0.00,,2013-02-15 22:02:00,
2013-02-15 17:11:00,46.0,32.0,30.00,SW,224,0.0,5.0,58,0.00,,,0.00,,2013-02-15 22:11:00,
2013-02-15 17:22:00,45.0,32.0,30.01,SSW,206,0.0,2.0,60,0.00,,,0.00,,2013-02-15 22:22:00,
2013-02-15 17:32:00,43.0,32.0,30.01,SW,229,0.0,0.0,64,0.00,,,0.00,,2013-02-15 22:32:00,
2013-02-15 17:42:00,43.0,32.0,30.01,SW,229,0.0,0.0,64,0.00,,,0.00,,2013-02-15 22:42:00,
2013-02-15 17:52:00,41.0,32.0,30.01,SW,228,0.0,0.0,71,0.00,,,0.00,,2013-02-15 22:52:00,
2013-02-15 18:02:00,39.0,32.0,30.01,SW,229,0.0,0.0,76,0.00,,,0.00,,2013-02-15 23:02:00,
2013-02-15 18:11:00,39.0,32.0,30.01,SW,229,0.0,0.0,76,0.00,,,0.00,,2013-02-15 23:11:00,
2013-02-15 18:21:00,37.0,31.0,30.01,SW,229,0.0,0.0,79,0.00,,,0.00,,2013-02-15 23:21:00,
2013-02-15 18:32:00,35.0,30.0,30.01,SW,228,0.0,0.0,83,0.00,,,0.00,,2013-02-15 23:32:00,
2013-02-15 18:52:00,34.0,30.0,30.01,SW,229,0.0,0.0,85,0.00,,,0.00,,2013-02-15 23:52:00,
2013-02-15 19:02:00,33.0,29.0,30.01,SW,228,0.0,0.0,86,0.00,,,0.00,,2013-02-16 00:02:00,
2013-02-15 19:22:00,32.0,29.0,30.01,SW,228,0.0,0.0,88,0.00,,,0.00,,2013-02-16 00:22:00,
2013-02-15 19:32:00,31.0,28.0,30.01,SW,228,0.0,0.0,89,0.00,,,0.00,,2013-02-16 00:32:00,
2013-02-15 19:52:00,31.0,29.0,30.01,SW,228,0.0,0.0,91,0.00,,,0.00,,2013-02-16 00:52:00,
2013-02-15 20:02:00,30.0,28.0,30.01,SW,228,0.0,0.0,92,0.00,,,0.00,,2013-02-16 01:02:00,
2013-02-15 20:21:00,30.0,28.0,30.01,SW,229,0.0,0.0,92,0.00,,,0.00,,2013-02-16 01:21:00,
2013-02-15 20:32:00,30.0,28.0,30.01,SW,228,0.0,0.0,93,0.00,,,0.00,,2013-02-16 01:32:00,
2013-02-15 20:52:00,29.0,27.0,30.01,SW,228,0.0,0.0,93,0.00,,,0.00,,2013-02-16 01:52:00,
2013-02-15 21:01:00,29.0,27.0,30.01,SW,228,0.0,0.0,93,0.00,,,0.00,,2013-02-16 02:01:00,
2013-02-15 21:22:00,29.0,27.0,30.01,SW,228,0.0,0.0,94,0.00,,,0.00,,2013-02-16 02:22:00,
2013-02-15 21:32:00,28.0,27.0,30.02,SW,228,0.0,0.0,94,0.00,,,0.00,,2013-02-16 02:32:00,
2013-02-15 21:52:00,28.0,27.0,30.01,SW,228,0.0,0.0,94,0.00,,,0.00,,2013-02-16 02:52:00,
2013-02-15 22:02:00,28.0,27.0,30.01,SW,228,0.0,0.0,95,0.00,,,0.00,,2013-02-16 03:02:00,
2013-02-15 22:21:00,29.0,28.0,30.01,SW,228,0.0,0.0,95,0.00,,,0.00,,2013-02-16 03:21:00,
2013-02-15 22:32:00,29.0,28.0,30.01,SW,228,0.0,0.0,95,0.00,,,0.00,,2013-02-16 03:32:00,
2013-02-15 22:42:00,29.0,28.0,30.01,SW,228,0.0,0.0,95,0.00,,,0.00,,2013-02-16 03:42:00,
2013-02-15 22:52:00,30.0,29.0,30.01,SW,228,0.0,0.0,95,0.00,,,0.00,,2013-02-16 03:52:00,
2013-02-15 23:01:00,30.0,28.0,30.01,SW,228,0.0,0.0,94,0.00,,,0.00,,2013-02-16 04:01:00,
2013-02-15 23:11:00,30.0,28.0,30.01,SW,228,0.0,0.0,94,0.00,,,0.00,,2013-02-16 04:11:00,
2013-02-15 23:21:00,30.0,28.0,30.01,SW,228,0.0,0.0,94,0.00,,,0.00,,2013-02-16 04:21:00,
2013-02-15 23:32:00,31.0,29.0,30.02,North,1,0.0,1.0,94,0.00,,,0.00,,2013-02-16 04:32:00,
2013-02-15 23:42:00,31.0,29.0,30.02,North,1,0.0,1.0,94,0.00,,,0.00,,2013-02-16 04:42:00,
2013-02-15 23:52:00,31.0,29.0,30.02,North,1,0.0,1.0,94,0.00,,,0.00,,2013-02-16 04:52:00,